sensor_id;sensor_type;location;lat;lon;timestamp;pressure;altitude;pressure_sealevel;temperature;humidity
77159;BME280;66129;45.890;13.714;2023-11-21T00:01:16;100491.53;;;10.52;100.00
77159;BME280;66129;45.890;13.714;2023-11-21T00:03:42;100482.13;;;10.49;100.00
77159;BME280;66129;45.890;13.714;2023-11-21T00:06:08;100498.38;;;10.54;100.00
77159;BME280;66129;45.890;13.714;2023-11-21T00:08:37;100499.28;;;10.56;100.00
77159;BME280;66129;45.890;13.714;2023-11-21T00:11:02;100499.34;;;10.59;100.00
77159;BME280;66129;45.890;13.714;2023-11-21T00:13:31;100493.22;;;10.50;100.00
77159;BME280;66129;45.890;13.714;2023-11-21T00:15:56;100497.50;;;10.51;100.00
77159;BME280;66129;45.890;13.714;2023-11-21T00:18:22;100496.72;;;10.56;100.00
77159;BME280;66129;45.890;13.714;2023-11-21T00:20:47;100488.91;;;10.49;100.00
77159;BME280;66129;45.890;13.714;2023-11-21T00:23:13;100483.69;;;10.43;100.00
77159;BME280;66129;45.890;13.714;2023-11-21T00:25:38;100494.03;;;10.49;100.00
77159;BME280;66129;45.890;13.714;2023-11-21T00:28:04;100481.19;;;10.44;100.00
77159;BME280;66129;45.890;13.714;2023-11-21T00:30:31;100470.00;;;10.39;100.00
77159;BME280;66129;45.890;13.714;2023-11-21T00:32:57;100470.03;;;10.42;100.00
77159;BME280;66129;45.890;13.714;2023-11-21T00:35:22;100464.06;;;10.43;100.00
77159;BME280;66129;45.890;13.714;2023-11-21T00:37:47;100447.88;;;10.46;100.00
77159;BME280;66129;45.890;13.714;2023-11-21T00:40:15;100450.53;;;10.53;100.00
77159;BME280;66129;45.890;13.714;2023-11-21T00:42:41;100434.41;;;10.60;100.00
77159;BME280;66129;45.890;13.714;2023-11-21T00:45:07;100421.59;;;10.60;100.00
77159;BME280;66129;45.890;13.714;2023-11-21T00:47:33;100424.16;;;10.60;100.00
77159;BME280;66129;45.890;13.714;2023-11-21T00:49:58;100422.34;;;10.52;100.00
77159;BME280;66129;45.890;13.714;2023-11-21T00:52:24;100421.59;;;10.60;100.00
77159;BME280;66129;45.890;13.714;2023-11-21T00:54:50;100428.59;;;10.72;100.00
77159;BME280;66129;45.890;13.714;2023-11-21T00:57:15;100420.09;;;10.76;100.00
77159;BME280;66129;45.890;13.714;2023-11-21T00:59:41;100402.91;;;10.67;100.00
77159;BME280;66129;45.890;13.714;2023-11-21T01:02:06;100403.72;;;10.63;100.00
77159;BME280;66129;45.890;13.714;2023-11-21T01:04:35;100407.16;;;10.67;100.00
77159;BME280;66129;45.890;13.714;2023-11-21T01:07:00;100404.59;;;10.67;100.00
77159;BME280;66129;45.890;13.714;2023-11-21T01:09:26;100407.28;;;10.74;100.00
77159;BME280;66129;45.890;13.714;2023-11-21T01:11:51;100396.97;;;10.71;100.00
77159;BME280;66129;45.890;13.714;2023-11-21T01:14:17;100408.09;;;10.70;100.00
77159;BME280;66129;45.890;13.714;2023-11-21T01:16:43;100404.69;;;10.71;100.00
77159;BME280;66129;45.890;13.714;2023-11-21T01:19:08;100409.03;;;10.78;100.00
77159;BME280;66129;45.890;13.714;2023-11-21T01:21:34;100403.84;;;10.74;100.00
77159;BME280;66129;45.890;13.714;2023-11-21T01:24:00;100388.38;;;10.66;100.00
77159;BME280;66129;45.890;13.714;2023-11-21T01:26:25;100405.47;;;10.67;100.00
77159;BME280;66129;45.890;13.714;2023-11-21T01:28:51;100395.09;;;10.58;100.00
77159;BME280;66129;45.890;13.714;2023-11-21T01:31:16;100405.38;;;10.61;100.00
77159;BME280;66129;45.890;13.714;2023-11-21T01:33:42;100401.94;;;10.59;100.00
77159;BME280;66129;45.890;13.714;2023-11-21T01:36:07;100407.94;;;10.61;100.00
77159;BME280;66129;45.890;13.714;2023-11-21T01:38:33;100394.34;;;10.65;100.00
77159;BME280;66129;45.890;13.714;2023-11-21T01:40:59;100398.63;;;10.66;100.00
77159;BME280;66129;45.890;13.714;2023-11-21T01:43:26;100394.34;;;10.67;100.00
77159;BME280;66129;45.890;13.714;2023-11-21T01:45:54;100384.94;;;10.66;100.00
77159;BME280;66129;45.890;13.714;2023-11-21T01:48:22;100351.44;;;10.52;100.00
77159;BME280;66129;45.890;13.714;2023-11-21T01:50:48;100361.75;;;10.57;100.00
77159;BME280;66129;45.890;13.714;2023-11-21T01:53:14;100370.44;;;10.68;100.00
77159;BME280;66129;45.890;13.714;2023-11-21T01:55:41;100358.31;;;10.56;100.00
77159;BME280;66129;45.890;13.714;2023-11-21T01:58:08;100360.22;;;10.69;100.00
77159;BME280;66129;45.890;13.714;2023-11-21T02:00:34;100354.38;;;10.79;100.00
77159;BME280;66129;45.890;13.714;2023-11-21T02:03:00;100344.97;;;10.80;100.00
77159;BME280;66129;45.890;13.714;2023-11-21T02:05:26;100339.91;;;10.86;100.00
77159;BME280;66129;45.890;13.714;2023-11-21T02:07:52;100329.63;;;10.84;100.00
77159;BME280;66129;45.890;13.714;2023-11-21T02:10:18;100336.47;;;10.84;100.00
77159;BME280;66129;45.890;13.714;2023-11-21T02:12:51;100335.66;;;10.88;100.00
77159;BME280;66129;45.890;13.714;2023-11-21T02:15:17;100340.78;;;10.89;100.00
77159;BME280;66129;45.890;13.714;2023-11-21T02:17:46;100334.06;;;10.99;100.00
77159;BME280;66129;45.890;13.714;2023-11-21T02:20:18;100322.94;;;10.98;100.00
77159;BME280;66129;45.890;13.714;2023-11-21T02:22:49;100328.97;;;11.00;100.00
77159;BME280;66129;45.890;13.714;2023-11-21T02:25:15;100315.25;;;10.98;100.00
77159;BME280;66129;45.890;13.714;2023-11-21T02:27:40;100299.78;;;10.89;100.00
77159;BME280;66129;45.890;13.714;2023-11-21T02:30:07;100323.84;;;11.00;100.00
77159;BME280;66129;45.890;13.714;2023-11-21T02:32:35;100317.75;;;10.91;100.00
77159;BME280;66129;45.890;13.714;2023-11-21T02:35:00;100310.88;;;10.87;100.00
77159;BME280;66129;45.890;13.714;2023-11-21T02:37:27;100318.53;;;10.85;100.00
77159;BME280;66129;45.890;13.714;2023-11-21T02:39:52;100321.09;;;10.85;100.00
77159;BME280;66129;45.890;13.714;2023-11-21T02:42:18;100329.63;;;10.83;100.00
77159;BME280;66129;45.890;13.714;2023-11-21T02:44:44;100326.13;;;10.76;100.00
77159;BME280;66129;45.890;13.714;2023-11-21T02:47:09;100332.22;;;10.87;100.00
77159;BME280;66129;45.890;13.714;2023-11-21T02:49:35;100322.84;;;10.88;100.00
77159;BME280;66129;45.890;13.714;2023-11-21T02:52:01;100331.50;;;10.99;100.00
77159;BME280;66129;45.890;13.714;2023-11-21T02:54:27;100316.25;;;11.09;100.00
77159;BME280;66129;45.890;13.714;2023-11-21T02:56:53;100317.97;;;11.13;100.00
77159;BME280;66129;45.890;13.714;2023-11-21T02:59:18;100294.75;;;10.98;100.00
77159;BME280;66129;45.890;13.714;2023-11-21T03:01:45;100315.41;;;11.11;100.00
77159;BME280;66129;45.890;13.714;2023-11-21T03:04:11;100323.13;;;11.16;100.00
77159;BME280;66129;45.890;13.714;2023-11-21T03:06:43;100317.16;;;11.17;100.00
77159;BME280;66129;45.890;13.714;2023-11-21T03:09:09;100311.09;;;11.07;100.00
77159;BME280;66129;45.890;13.714;2023-11-21T03:11:35;100316.22;;;11.07;100.00
77159;BME280;66129;45.890;13.714;2023-11-21T03:14:00;100296.44;;;10.96;100.00
77159;BME280;66129;45.890;13.714;2023-11-21T03:16:25;100305.03;;;11.02;100.00
77159;BME280;66129;45.890;13.714;2023-11-21T03:18:51;100289.63;;;10.98;100.00
77159;BME280;66129;45.890;13.714;2023-11-21T03:21:17;100280.94;;;10.87;100.00
77159;BME280;66129;45.890;13.714;2023-11-21T03:23:43;100302.41;;;10.97;100.00
77159;BME280;66129;45.890;13.714;2023-11-21T03:26:12;100296.44;;;10.96;100.00
77159;BME280;66129;45.890;13.714;2023-11-21T03:28:38;100274.16;;;10.92;100.00
77159;BME280;66129;45.890;13.714;2023-11-21T03:31:03;100279.28;;;10.92;100.00
77159;BME280;66129;45.890;13.714;2023-11-21T03:33:29;100274.28;;;11.04;100.00
77159;BME280;66129;45.890;13.714;2023-11-21T03:35:55;100259.66;;;10.96;100.00
77159;BME280;66129;45.890;13.714;2023-11-21T03:38:20;100267.41;;;11.00;100.00
77159;BME280;66129;45.890;13.714;2023-11-21T03:40:46;100260.59;;;11.02;100.00
77159;BME280;66129;45.890;13.714;2023-11-21T03:43:12;100268.31;;;11.06;100.00
77159;BME280;66129;45.890;13.714;2023-11-21T03:45:38;100274.28;;;11.04;100.00
77159;BME280;66129;45.890;13.714;2023-11-21T03:48:06;100272.56;;;11.03;100.00
77159;BME280;66129;45.890;13.714;2023-11-21T03:50:31;100251.09;;;10.92;100.00
77159;BME280;66129;45.890;13.714;2023-11-21T03:52:57;100273.34;;;10.98;100.00
77159;BME280;66129;45.890;13.714;2023-11-21T03:55:23;100264.81;;;10.97;100.00
77159;BME280;66129;45.890;13.714;2023-11-21T03:57:52;100246.75;;;10.87;100.00
77159;BME280;66129;45.890;13.714;2023-11-21T04:00:18;100251.00;;;10.86;100.00
77159;BME280;66129;45.890;13.714;2023-11-21T04:02:45;100263.75;;;10.77;100.00
77159;BME280;66129;45.890;13.714;2023-11-21T04:05:11;100261.97;;;10.70;100.00
77159;BME280;66129;45.890;13.714;2023-11-21T04:07:37;100253.38;;;10.65;100.00
77159;BME280;66129;45.890;13.714;2023-11-21T04:10:04;100262.84;;;10.74;100.00
77159;BME280;66129;45.890;13.714;2023-11-21T04:12:31;100247.34;;;10.62;100.00
77159;BME280;66129;45.890;13.714;2023-11-21T04:14:56;100246.44;;;10.57;100.00
77159;BME280;66129;45.890;13.714;2023-11-21T04:17:22;100263.66;;;10.68;100.00
77159;BME280;66129;45.890;13.714;2023-11-21T04:19:47;100248.94;;;10.52;100.00
77159;BME280;66129;45.890;13.714;2023-11-21T04:22:13;100254.84;;;10.47;100.00
77159;BME280;66129;45.890;13.714;2023-11-21T04:24:38;100257.47;;;10.48;100.00
77159;BME280;66129;45.890;13.714;2023-11-21T04:27:04;100244.53;;;10.39;100.00
77159;BME280;66129;45.890;13.714;2023-11-21T04:29:29;100252.13;;;10.33;100.00
77159;BME280;66129;45.890;13.714;2023-11-21T04:31:55;100253.06;;;10.38;100.00
77159;BME280;66129;45.890;13.714;2023-11-21T04:34:20;100248.00;;;10.44;100.00
77159;BME280;66129;45.890;13.714;2023-11-21T04:36:46;100255.66;;;10.41;100.00
77159;BME280;66129;45.890;13.714;2023-11-21T04:39:11;100255.78;;;10.53;100.00
77159;BME280;66129;45.890;13.714;2023-11-21T04:41:37;100262.41;;;10.36;100.00
77159;BME280;66129;45.890;13.714;2023-11-21T04:44:05;100263.31;;;10.38;100.00
77159;BME280;66129;45.890;13.714;2023-11-21T04:46:31;100250.34;;;10.26;100.00
77159;BME280;66129;45.890;13.714;2023-11-21T04:48:57;100273.44;;;10.29;100.00
77159;BME280;66129;45.890;13.714;2023-11-21T04:51:23;100272.59;;;10.29;100.00
77159;BME280;66129;45.890;13.714;2023-11-21T04:53:49;100271.59;;;10.19;100.00
77159;BME280;66129;45.890;13.714;2023-11-21T04:56:14;100244.28;;;10.20;100.00
77159;BME280;66129;45.890;13.714;2023-11-21T04:58:41;100241.31;;;10.57;100.00
77159;BME280;66129;45.890;13.714;2023-11-21T05:01:09;100235.28;;;11.38;100.00
77159;BME280;66129;45.890;13.714;2023-11-21T05:03:35;100241.44;;;11.62;100.00
77159;BME280;66129;45.890;13.714;2023-11-21T05:06:01;100241.53;;;11.74;100.00
77159;BME280;66129;45.890;13.714;2023-11-21T05:08:26;100232.16;;;11.81;100.00
77159;BME280;66129;45.890;13.714;2023-11-21T05:10:52;100238.19;;;11.86;100.00
77159;BME280;66129;45.890;13.714;2023-11-21T05:13:19;100239.94;;;11.94;98.20
77159;BME280;66129;45.890;13.714;2023-11-21T05:15:45;100248.63;;;12.14;95.63
77159;BME280;66129;45.890;13.714;2023-11-21T05:18:11;100247.72;;;12.06;94.83
77159;BME280;66129;45.890;13.714;2023-11-21T05:20:39;100241.78;;;12.22;91.61
77159;BME280;66129;45.890;13.714;2023-11-21T05:23:04;100225.50;;;12.17;92.63
77159;BME280;66129;45.890;13.714;2023-11-21T05:25:30;100230.66;;;12.20;92.87
77159;BME280;66129;45.890;13.714;2023-11-21T05:27:55;100226.34;;;12.10;93.73
77159;BME280;66129;45.890;13.714;2023-11-21T05:30:21;100248.63;;;12.17;96.01
77159;BME280;66129;45.890;13.714;2023-11-21T05:32:47;100234.00;;;12.04;97.07
77159;BME280;66129;45.890;13.714;2023-11-21T05:35:13;100237.41;;;11.99;98.13
77159;BME280;66129;45.890;13.714;2023-11-21T05:37:41;100225.38;;;11.90;100.00
77159;BME280;66129;45.890;13.714;2023-11-21T05:40:08;100228.81;;;11.91;98.11
77159;BME280;66129;45.890;13.714;2023-11-21T05:42:34;100221.13;;;12.00;96.95
77159;BME280;66129;45.890;13.714;2023-11-21T05:45:00;100246.09;;;12.26;96.00
77159;BME280;66129;45.890;13.714;2023-11-21T05:47:40;100257.22;;;12.25;95.33
77159;BME280;66129;45.890;13.714;2023-11-21T05:50:10;100243.56;;;12.27;95.36
77159;BME280;66129;45.890;13.714;2023-11-21T05:52:40;100252.09;;;12.29;93.86
77159;BME280;66129;45.890;13.714;2023-11-21T05:55:06;100252.13;;;12.31;93.23
77159;BME280;66129;45.890;13.714;2023-11-21T05:57:35;100255.59;;;12.40;93.59
77159;BME280;66129;45.890;13.714;2023-11-21T06:00:05;100270.19;;;12.44;92.32
77159;BME280;66129;45.890;13.714;2023-11-21T06:02:37;100252.16;;;12.37;92.63
77159;BME280;66129;45.890;13.714;2023-11-21T06:05:03;100230.69;;;12.21;92.45
77159;BME280;66129;45.890;13.714;2023-11-21T06:07:29;100243.59;;;12.35;91.36
77159;BME280;66129;45.890;13.714;2023-11-21T06:09:55;100257.31;;;12.46;90.22
77159;BME280;66129;45.890;13.714;2023-11-21T06:12:20;100255.59;;;12.40;91.49
77159;BME280;66129;45.890;13.714;2023-11-21T06:14:46;100245.34;;;12.42;88.83
77159;BME280;66129;45.890;13.714;2023-11-21T06:17:11;100267.63;;;12.52;89.03
77159;BME280;66129;45.890;13.714;2023-11-21T06:19:36;100267.66;;;12.59;88.06
77159;BME280;66129;45.890;13.714;2023-11-21T06:22:02;100295.13;;;12.65;87.93
77159;BME280;66129;45.890;13.714;2023-11-21T06:24:28;100283.09;;;12.64;87.26
77159;BME280;66129;45.890;13.714;2023-11-21T06:26:53;100277.94;;;12.61;86.76
77159;BME280;66129;45.890;13.714;2023-11-21T06:29:18;100300.25;;;12.69;86.53
77159;BME280;66129;45.890;13.714;2023-11-21T06:31:44;100295.09;;;12.63;87.51
77159;BME280;66129;45.890;13.714;2023-11-21T06:34:11;100295.09;;;12.63;86.85
77159;BME280;66129;45.890;13.714;2023-11-21T06:36:37;100283.06;;;12.59;87.30
77159;BME280;66129;45.890;13.714;2023-11-21T06:39:03;100301.94;;;12.61;87.08
77159;BME280;66129;45.890;13.714;2023-11-21T06:41:34;100293.38;;;12.58;86.66
77159;BME280;66129;45.890;13.714;2023-11-21T06:43:59;100263.38;;;12.55;84.20
77159;BME280;66129;45.890;13.714;2023-11-21T06:46:25;100266.78;;;12.60;83.08
77159;BME280;66129;45.890;13.714;2023-11-21T06:48:50;100284.91;;;12.89;82.12
77159;BME280;66129;45.890;13.714;2023-11-21T06:51:16;100268.63;;;12.91;81.35
77159;BME280;66129;45.890;13.714;2023-11-21T06:53:42;100275.50;;;12.95;81.06
77159;BME280;66129;45.890;13.714;2023-11-21T06:56:17;100263.47;;;12.88;78.86
77159;BME280;66129;45.890;13.714;2023-11-21T06:58:44;100261.75;;;12.84;80.65
77159;BME280;66129;45.890;13.714;2023-11-21T07:01:11;100284.94;;;12.93;79.73
77159;BME280;66129;45.890;13.714;2023-11-21T07:03:36;100275.47;;;12.86;79.77
77159;BME280;66129;45.890;13.714;2023-11-21T07:06:03;100277.16;;;12.81;79.93
77159;BME280;66129;45.890;13.714;2023-11-21T07:08:29;100281.44;;;12.79;79.93
77159;BME280;66129;45.890;13.714;2023-11-21T07:10:54;100274.56;;;12.77;80.15
77159;BME280;66129;45.890;13.714;2023-11-21T07:13:20;100288.31;;;12.83;80.02
77159;BME280;66129;45.890;13.714;2023-11-21T07:15:47;100287.47;;;12.84;79.45
77159;BME280;66129;45.890;13.714;2023-11-21T07:18:13;100272.03;;;12.84;78.78
77159;BME280;66129;45.890;13.714;2023-11-21T07:20:38;100275.50;;;12.91;78.77
77159;BME280;66129;45.890;13.714;2023-11-21T07:23:04;100267.75;;;12.88;78.55
77159;BME280;66129;45.890;13.714;2023-11-21T07:25:31;100269.47;;;12.87;78.88
77159;BME280;66129;45.890;13.714;2023-11-21T07:27:57;100283.22;;;12.92;78.45
77159;BME280;66129;45.890;13.714;2023-11-21T07:30:22;100294.38;;;12.97;77.55
77159;BME280;66129;45.890;13.714;2023-11-21T07:32:48;100281.53;;;12.96;77.89
77159;BME280;66129;45.890;13.714;2023-11-21T07:35:14;100290.97;;;13.07;76.67
77159;BME280;66129;45.890;13.714;2023-11-21T07:37:39;100272.97;;;13.09;77.06
77159;BME280;66129;45.890;13.714;2023-11-21T07:40:05;100278.09;;;13.12;76.95
77159;BME280;66129;45.890;13.714;2023-11-21T07:42:34;100279.84;;;13.16;76.07
77159;BME280;66129;45.890;13.714;2023-11-21T07:44:59;100288.41;;;13.25;75.78
77159;BME280;66129;45.890;13.714;2023-11-21T07:47:25;100272.16;;;13.33;74.47
77159;BME280;66129;45.890;13.714;2023-11-21T07:49:53;100269.56;;;13.29;74.13
77159;BME280;66129;45.890;13.714;2023-11-21T07:52:18;100272.97;;;13.35;73.99
77159;BME280;66129;45.890;13.714;2023-11-21T07:54:46;100276.44;;;13.45;73.26
77159;BME280;66129;45.890;13.714;2023-11-21T07:57:11;100273.84;;;13.54;71.85
77159;BME280;66129;45.890;13.714;2023-11-21T07:59:39;100272.13;;;13.62;71.39
77159;BME280;66129;45.890;13.714;2023-11-21T08:02:06;100269.56;;;13.65;71.67
77159;BME280;66129;45.890;13.714;2023-11-21T08:04:32;100285.00;;;13.75;70.60
77159;BME280;66129;45.890;13.714;2023-11-21T08:06:57;100257.53;;;13.73;69.93
77159;BME280;66129;45.890;13.714;2023-11-21T08:09:23;100275.53;;;13.82;68.85
77159;BME280;66129;45.890;13.714;2023-11-21T08:11:49;100295.31;;;13.84;70.54
77159;BME280;66129;45.890;13.714;2023-11-21T08:14:15;100252.38;;;13.80;68.87
77159;BME280;66129;45.890;13.714;2023-11-21T08:16:40;100260.94;;;13.81;68.31
77159;BME280;66129;45.890;13.714;2023-11-21T08:19:06;100254.94;;;13.85;69.62
77159;BME280;66129;45.890;13.714;2023-11-21T08:21:33;100260.06;;;13.82;69.76
77159;BME280;66129;45.890;13.714;2023-11-21T08:23:59;100261.81;;;13.81;70.04
77159;BME280;66129;45.890;13.714;2023-11-21T08:26:25;100268.66;;;13.87;68.83
77159;BME280;66129;45.890;13.714;2023-11-21T08:28:51;100275.53;;;13.88;69.14
77159;BME280;66129;45.890;13.714;2023-11-21T08:31:24;100250.66;;;13.79;69.20
77159;BME280;66129;45.890;13.714;2023-11-21T08:33:50;100270.41;;;13.83;69.26
77159;BME280;66129;45.890;13.714;2023-11-21T08:36:15;100252.38;;;13.76;69.28
77159;BME280;66129;45.890;13.714;2023-11-21T08:38:41;100268.69;;;13.82;68.33
77159;BME280;66129;45.890;13.714;2023-11-21T08:41:07;100266.13;;;13.78;68.96
77159;BME280;66129;45.890;13.714;2023-11-21T08:43:35;100262.69;;;13.76;69.92
77159;BME280;66129;45.890;13.714;2023-11-21T08:46:05;100251.53;;;13.65;71.06
77159;BME280;66129;45.890;13.714;2023-11-21T08:48:31;100269.53;;;13.69;69.92
77159;BME280;66129;45.890;13.714;2023-11-21T08:50:56;100262.69;;;13.70;69.00
77159;BME280;66129;45.890;13.714;2023-11-21T08:53:22;100262.69;;;13.67;70.09
77159;BME280;66129;45.890;13.714;2023-11-21T08:55:48;100281.56;;;13.63;71.18
77159;BME280;66129;45.890;13.714;2023-11-21T08:58:15;100250.66;;;13.63;70.72
77159;BME280;66129;45.890;13.714;2023-11-21T09:00:41;100277.28;;;13.65;71.80
77159;BME280;66129;45.890;13.714;2023-11-21T09:03:06;100264.41;;;13.65;71.50
77159;BME280;66129;45.890;13.714;2023-11-21T09:05:37;100261.84;;;13.60;71.17
77159;BME280;66129;45.890;13.714;2023-11-21T09:08:03;100251.50;;;13.80;69.53
77159;BME280;66129;45.890;13.714;2023-11-21T09:10:29;100249.75;;;13.94;69.35
77159;BME280;66129;45.890;13.714;2023-11-21T09:12:54;100270.34;;;14.09;69.09
77159;BME280;66129;45.890;13.714;2023-11-21T09:15:20;100276.38;;;14.03;69.01
77159;BME280;66129;45.890;13.714;2023-11-21T09:17:46;100282.38;;;14.07;69.81
77159;BME280;66129;45.890;13.714;2023-11-21T09:20:11;100268.63;;;14.14;69.79
77159;BME280;66129;45.890;13.714;2023-11-21T09:22:37;100270.34;;;13.95;71.65
77159;BME280;66129;45.890;13.714;2023-11-21T09:25:03;100279.00;;;13.85;71.73
77159;BME280;66129;45.890;13.714;2023-11-21T09:27:32;100280.72;;;13.76;70.93
77159;BME280;66129;45.890;13.714;2023-11-21T09:29:57;100266.13;;;13.66;71.59
77159;BME280;66129;45.890;13.714;2023-11-21T09:32:23;100279.00;;;13.55;73.27
77159;BME280;66129;45.890;13.714;2023-11-21T09:34:49;100273.00;;;13.50;73.57
77159;BME280;66129;45.890;13.714;2023-11-21T09:37:16;100285.03;;;13.51;73.83
77159;BME280;66129;45.890;13.714;2023-11-21T09:39:42;100275.59;;;13.46;74.55
77159;BME280;66129;45.890;13.714;2023-11-21T09:42:12;100285.03;;;13.57;74.56
77159;BME280;66129;45.890;13.714;2023-11-21T09:44:51;100264.44;;;13.44;74.96
77159;BME280;66129;45.890;13.714;2023-11-21T09:47:22;100291.00;;;13.55;74.89
77159;BME280;66129;45.890;13.714;2023-11-21T09:49:48;100273.84;;;13.60;74.38
77159;BME280;66129;45.890;13.714;2023-11-21T09:52:25;100281.56;;;13.67;73.20
77159;BME280;66129;45.890;13.714;2023-11-21T09:54:55;100265.22;;;13.88;71.85
77159;BME280;66129;45.890;13.714;2023-11-21T09:57:24;100260.09;;;13.86;72.60
77159;BME280;66129;45.890;13.714;2023-11-21T09:59:54;100272.97;;;13.86;71.87
77159;BME280;66129;45.890;13.714;2023-11-21T10:02:28;100277.25;;;13.86;73.43
77159;BME280;66129;45.890;13.714;2023-11-21T10:04:55;100276.44;;;13.78;72.00
77159;BME280;66129;45.890;13.714;2023-11-21T10:07:22;100263.50;;;13.93;70.41
77159;BME280;66129;45.890;13.714;2023-11-21T10:09:48;100266.94;;;14.01;71.04
77159;BME280;66129;45.890;13.714;2023-11-21T10:12:15;100265.22;;;14.03;71.72
77159;BME280;66129;45.890;13.714;2023-11-21T10:14:41;100259.22;;;13.95;71.24
77159;BME280;66129;45.890;13.714;2023-11-21T10:17:08;100270.38;;;13.82;71.01
77159;BME280;66129;45.890;13.714;2023-11-21T10:19:38;100278.16;;;13.73;71.77
77159;BME280;66129;45.890;13.714;2023-11-21T10:22:04;100273.00;;;13.59;71.02
77159;BME280;66129;45.890;13.714;2023-11-21T10:24:32;100278.16;;;13.62;72.12
77159;BME280;66129;45.890;13.714;2023-11-21T10:26:58;100272.16;;;13.63;71.66
77159;BME280;66129;45.890;13.714;2023-11-21T10:29:23;100279.84;;;13.62;71.66
77159;BME280;66129;45.890;13.714;2023-11-21T10:31:50;100262.69;;;13.55;71.33
77159;BME280;66129;45.890;13.714;2023-11-21T10:34:17;100289.31;;;13.55;71.08
77159;BME280;66129;45.890;13.714;2023-11-21T10:36:43;100279.00;;;13.58;72.26
77159;BME280;66129;45.890;13.714;2023-11-21T10:39:09;100275.56;;;13.64;70.67
77159;BME280;66129;45.890;13.714;2023-11-21T10:41:38;100273.84;;;13.64;70.32
77159;BME280;66129;45.890;13.714;2023-11-21T10:44:05;100256.69;;;13.63;70.43
77159;BME280;66129;45.890;13.714;2023-11-21T10:46:32;100249.81;;;13.61;69.05
77159;BME280;66129;45.890;13.714;2023-11-21T10:48:59;100267.84;;;13.56;69.59
77159;BME280;66129;45.890;13.714;2023-11-21T10:51:25;100267.00;;;13.44;68.61
77159;BME280;66129;45.890;13.714;2023-11-21T10:53:53;100277.28;;;13.56;69.59
77159;BME280;66129;45.890;13.714;2023-11-21T10:56:23;100288.44;;;13.53;70.05
77159;BME280;66129;45.890;13.714;2023-11-21T10:58:49;100281.59;;;13.49;70.05
77159;BME280;66129;45.890;13.714;2023-11-21T11:01:18;100287.59;;;13.47;71.67
77159;BME280;66129;45.890;13.714;2023-11-21T11:03:44;100292.72;;;13.45;71.71
77159;BME280;66129;45.890;13.714;2023-11-21T11:06:10;100261.84;;;13.31;72.17
77159;BME280;66129;45.890;13.714;2023-11-21T11:08:39;100279.84;;;13.25;71.67
77159;BME280;66129;45.890;13.714;2023-11-21T11:11:05;100291.88;;;13.30;72.00
77159;BME280;66129;45.890;13.714;2023-11-21T11:13:31;100268.69;;;13.15;69.96
77159;BME280;66129;45.890;13.714;2023-11-21T11:16:01;100272.97;;;13.22;72.52
77159;BME280;66129;45.890;13.714;2023-11-21T11:18:32;100273.00;;;13.16;74.50
77159;BME280;66129;45.890;13.714;2023-11-21T11:21:37;100260.97;;;13.14;72.81
77159;BME280;66129;45.890;13.714;2023-11-21T11:29:47;100272.09;;;12.98;74.63
77159;BME280;66129;45.890;13.714;2023-11-21T11:35:57;100250.63;;;12.91;75.09
77159;BME280;66129;45.890;13.714;2023-11-21T11:37:57;100244.63;;;12.98;74.96
77159;BME280;66129;45.890;13.714;2023-11-21T11:40:38;100238.66;;;12.95;74.03
77159;BME280;66129;45.890;13.714;2023-11-21T11:43:04;100225.75;;;12.87;72.70
77159;BME280;66129;45.890;13.714;2023-11-21T11:45:33;100224.06;;;12.94;72.64
77159;BME280;66129;45.890;13.714;2023-11-21T11:48:01;100224.06;;;12.95;73.18
77159;BME280;66129;45.890;13.714;2023-11-21T11:50:27;100223.19;;;12.96;73.29
77159;BME280;66129;45.890;13.714;2023-11-21T11:52:53;100227.47;;;12.94;73.68
77159;BME280;66129;45.890;13.714;2023-11-21T11:55:24;100221.44;;;12.83;73.07
77159;BME280;66129;45.890;13.714;2023-11-21T11:57:54;100198.31;;;12.89;72.62
77159;BME280;66129;45.890;13.714;2023-11-21T12:02:57;100215.44;;;12.81;73.26
77159;BME280;66129;45.890;13.714;2023-11-21T12:05:24;100206.88;;;12.82;73.44
77159;BME280;66129;45.890;13.714;2023-11-21T12:07:57;100215.44;;;12.84;72.26
77159;BME280;66129;45.890;13.714;2023-11-21T12:10:30;100187.13;;;12.78;74.33
77159;BME280;66129;45.890;13.714;2023-11-21T12:13:09;100187.16;;;12.81;73.45
77159;BME280;66129;45.890;13.714;2023-11-21T12:15:37;100205.97;;;12.76;73.82
77159;BME280;66129;45.890;13.714;2023-11-21T12:18:03;100196.50;;;12.61;73.39
77159;BME280;66129;45.890;13.714;2023-11-21T12:20:30;100163.13;;;12.58;75.23
77159;BME280;66129;45.890;13.714;2023-11-21T12:23:00;100206.81;;;12.61;74.38
77159;BME280;66129;45.890;13.714;2023-11-21T12:25:29;100184.53;;;12.57;75.08
77159;BME280;66129;45.890;13.714;2023-11-21T12:27:58;100190.50;;;12.49;75.20
77159;BME280;66129;45.890;13.714;2023-11-21T12:30:26;100187.09;;;12.57;74.90
77159;BME280;66129;45.890;13.714;2023-11-21T12:32:54;100198.22;;;12.50;74.46
77159;BME280;66129;45.890;13.714;2023-11-21T12:35:27;100203.38;;;12.53;75.26
77159;BME280;66129;45.890;13.714;2023-11-21T12:37:54;100177.63;;;12.49;74.01
77159;BME280;66129;45.890;13.714;2023-11-21T12:40:22;100193.09;;;12.59;74.37
77159;BME280;66129;45.890;13.714;2023-11-21T12:42:50;100181.94;;;12.53;75.52
77159;BME280;66129;45.890;13.714;2023-11-21T12:47:49;100180.19;;;12.38;74.97